Osseo, Minnesota
Current Conditions -  °F | °C
As of 2:53 PM on Wednesday 17 Dec 2014 (Local Time) from KMIC Reporting Station
Broken Clouds Broken Clouds  
Wind Chill: -13°   Ceiling: 2000
Heat Index: -7°   Visibility: 10mi
Dew Point: -12°   Wind: 8mph
Humidity: 68%   Direction: 360°N
Pressure: 30.28"   Gusts: NA
Location:  45.12°N, 93.4°W
Report Text: KMIC 172053Z 36007KT 10SM BKN020 M07/M12 A3028 RMK AO2 SLP272 T10721122 56005
Loading
Personal Weather Stations






























Interactive Weather Map New forecast layout! Learn more

10-Day Weather Forecast

Advertisements
Track Severe Weather on mobile